Crater Lake National Park, OR

2:47 PM PDT on October 22, 2014 (GMT -0700)
RAWS CHILOQUIN OR US | Change Station
CLOSE
Current Station
Personal Weather Station
Location: Sprague River, OR
Elevation: 4419 ft
Nearby Weather Stations

Elev 4419 ft 42.58 °N, 121.89 °W | Updated 51 minutes ago

Overcast
Overcast
51 °F
Feels Like 51 °F
N
10
Wind Variable Wind from South
Gusts 21.0 mph

Today
High -- | Low -- °F
--% Chance of Precip.
Yesterday
High -- | Low -- °F
Precip. -- in
7:28 AM 6:14 PM
Waning Crescent, 1% visible
Pressure 29.96 in
Visibility 10.0 miles
Clouds Scattered Clouds 9000 ft
Scattered Clouds 11000 ft
Dew Point 40 °F
Humidity 65%
Rainfall 0.01 in
Snow Depth 0 in , 0 in
UV 3 out of 12
Pollen 2.70 out of 12
Air Quality Not available.
Flu Activity Sporadic
METAR KLMT 222053Z 14007KT 10SM SCT090 SCT110 12/05 A3000 RMK AO2 SLP146 T01170050 58014

More Conditions Fewer Conditions

Pressure 29.96 in
Visibility 10.0 miles
Clouds Scattered Clouds 9000 ft
Scattered Clouds 11000 ft
Dew Point 40 °F
Humidity 65%
Rainfall 0.01 in
Snow Depth 0 in , 0 in
UV 3 out of 12
Pollen 2.70 out of 12
Air Quality Not available.
Flu Activity Sporadic
METAR KLMT 222053Z 14007KT 10SM SCT090 SCT110 12/05 A3000 RMK AO2 SLP146 T01170050 58014

More Conditions Fewer Conditions

10-Day Weather Forecast

Almanac

Astronomy

Oct. 22, 2014 Rise Set
Actual Time 7:28 AM PDT 6:14 PM PDT
Civil Twilight 7:00 AM PDT 6:42 PM PDT
Nautical Twilight 6:27 AM PDT 7:15 PM PDT
Astronomical Twilight 5:54 AM PDT 7:48 PM PDT
Moon 6:13 AM PDT 5:44 PM PDT
Length of Visible Light 11h 42m
Length of Day
10h 45m
Tomorrow will be 2m 42s shorter.
Waning Crescent, 1% of the Moon is Illuminated
Today
Waning Crescent
Oct 23
New
Oct 30
First Quarter
Nov 6
Full
Nov 14
Last Quarter

Today's Extremes

State Highs State Lows

Community

WunderPhotos

Upload Photos

1,764,047 photos uploaded!

WunderBlogs® & News

Nearby

Snow Depth

Station Depth Elevation
Sevenmile Marsh 0 in 6200 ft
Cold Springs Camp 0 in 6100 ft
Billie Creek Divide 0 in 5300 ft
Annie Springs 0 in 6020 ft
Fish Lake 0 in 4665 ft

Earthquake Activity

City Distance Mag. Time & Date
No recent earthquake activity has been reported nearby.
Minimum magnitude displayed is 2.5.

Coastal Water Temperatures

Place Temperature
No Stations Reporting

Nearby Weather Stations